createdAt,value
2022-09-01T00:00:07.776Z,59.03
2022-09-01T00:02:55.576Z,59.95
2022-09-01T00:05:22.891Z,63.82
2022-09-01T00:07:49.686Z,65.09
2022-09-01T00:10:17.393Z,64.29
2022-09-01T00:12:46.525Z,62.88
2022-09-01T00:15:17.128Z,62.05
2022-09-01T00:17:44.185Z,61.67
2022-09-01T00:20:10.908Z,61.55
2022-09-01T00:22:37.644Z,61.12
2022-09-01T00:25:05.890Z,60.80
2022-09-01T00:27:32.569Z,60.95
2022-09-01T00:30:00.422Z,61.04
2022-09-01T00:32:28.038Z,61.03
2022-09-01T00:34:55.151Z,61.13
2022-09-01T00:37:22.010Z,61.37
2022-09-01T00:39:48.780Z,61.18
2022-09-01T00:42:15.561Z,61.47
2022-09-01T00:44:42.438Z,61.51
2022-09-01T00:47:09.730Z,62.29
2022-09-01T00:49:42.979Z,62.14
2022-09-01T00:52:20.603Z,61.12
2022-09-01T00:54:50.951Z,60.36
2022-09-01T00:57:18.163Z,57.83
2022-09-01T01:00:24.555Z,57.31
2022-09-01T01:02:55.270Z,58.21
2022-09-01T01:05:30.934Z,59.73
2022-09-01T01:07:59.314Z,62.45
2022-09-01T01:10:32.100Z,64.85
2022-09-01T01:13:04.164Z,63.32
2022-09-01T01:15:31.212Z,61.91
2022-09-01T01:17:58.992Z,61.51
2022-09-01T01:20:47.635Z,61.32
2022-09-01T01:23:39.710Z,60.78
2022-09-01T01:26:09.842Z,60.10
2022-09-01T01:28:42.582Z,60.12
2022-09-01T01:31:18.288Z,59.78
2022-09-01T01:33:50.710Z,58.23
2022-09-01T01:36:25.310Z,58.22
2022-09-01T01:38:53.307Z,59.00
2022-09-01T01:41:21.495Z,60.13
2022-09-01T01:43:48.272Z,64.65
2022-09-01T01:46:18.594Z,65.02
2022-09-01T01:48:46.899Z,62.22
2022-09-01T01:51:20.656Z,60.24
2022-09-01T01:53:52.013Z,57.15
2022-09-01T01:56:20.072Z,56.96
2022-09-01T01:58:46.922Z,58.21
2022-09-01T02:01:17.020Z,59.64
2022-09-01T02:03:44.203Z,60.55
2022-09-01T02:06:11.556Z,64.45
2022-09-01T02:08:40.657Z,65.78
2022-09-01T02:11:08.419Z,64.24
2022-09-01T02:13:35.575Z,62.78
2022-09-01T02:16:12.260Z,62.17
2022-09-01T02:18:47.674Z,61.36
2022-09-01T02:21:19.871Z,61.22
2022-09-01T02:23:50.100Z,60.80
2022-09-01T02:26:18.556Z,62.07
2022-09-01T02:28:53.616Z,60.80
2022-09-01T02:31:27.635Z,57.37
2022-09-01T02:33:54.883Z,57.14
2022-09-01T02:36:24.596Z,58.51
2022-09-01T02:38:53.138Z,59.71
2022-09-01T02:41:26.580Z,64.07
2022-09-01T02:43:53.574Z,65.10
2022-09-01T02:46:22.966Z,61.53
2022-09-01T02:48:52.549Z,57.65
2022-09-01T02:51:24.725Z,57.01
2022-09-01T02:53:52.807Z,58.34
2022-09-01T02:56:22.304Z,59.67
2022-09-01T02:58:52.837Z,65.27
2022-09-01T03:01:25.299Z,66.02
2022-09-01T03:03:59.125Z,61.88
2022-09-01T03:06:27.705Z,58.27
2022-09-01T03:08:59.713Z,57.64
2022-09-01T03:11:29.495Z,58.89
2022-09-01T03:13:58.421Z,60.18
2022-09-01T03:16:25.426Z,64.97
2022-09-01T03:18:52.898Z,65.00
2022-09-01T03:21:20.255Z,61.13
2022-09-01T03:23:48.845Z,57.09
2022-09-01T03:26:18.347Z,56.69
2022-09-01T03:28:46.204Z,58.08
2022-09-01T03:31:13.061Z,59.44
2022-09-01T03:33:41.650Z,60.53
2022-09-01T03:36:18.739Z,65.57
2022-09-01T03:38:48.241Z,65.58
2022-09-01T03:41:17.860Z,61.49
2022-09-01T03:43:47.243Z,57.75
2022-09-01T03:46:20.871Z,57.32
2022-09-01T03:48:51.510Z,58.73
2022-09-01T03:51:22.137Z,60.05
2022-09-01T03:53:53.737Z,64.57
2022-09-01T03:56:23.604Z,64.61
2022-09-01T03:58:52.602Z,62.16
2022-09-01T04:01:19.735Z,57.97
2022-09-01T04:03:48.550Z,57.15
2022-09-01T04:06:24.274Z,58.59
2022-09-01T04:09:02.108Z,59.89
2022-09-01T04:11:34.069Z,64.79
2022-09-01T04:14:01.513Z,64.65
2022-09-01T04:16:50.984Z,62.04
2022-09-01T04:19:25.491Z,59.69
2022-09-01T04:21:55.922Z,57.34
2022-09-01T04:24:27.429Z,57.39
2022-09-01T04:26:58.078Z,58.82
2022-09-01T04:29:28.800Z,60.19
2022-09-01T04:32:03.311Z,64.37
2022-09-01T04:34:38.174Z,65.78
2022-09-01T04:37:12.471Z,62.76
2022-09-01T04:39:50.350Z,58.70
2022-09-01T04:42:23.481Z,57.65
2022-09-01T04:44:52.927Z,59.64
2022-09-01T04:47:29.450Z,63.81
2022-09-01T04:50:00.091Z,64.34
2022-09-01T04:52:27.952Z,61.49
2022-09-01T04:54:55.008Z,60.03
2022-09-01T04:57:22.567Z,58.24
2022-09-01T04:59:49.632Z,58.07
2022-09-01T05:02:16.542Z,59.42
2022-09-01T05:04:46.499Z,60.10
2022-09-01T05:07:18.452Z,65.44
2022-09-01T05:09:45.509Z,65.41
2022-09-01T05:12:31.191Z,62.69
2022-09-01T05:14:58.448Z,62.45
2022-09-01T05:17:28.804Z,62.50
2022-09-01T05:19:56.541Z,61.98
2022-09-01T05:22:23.407Z,61.60
2022-09-01T05:25:04.405Z,60.80
2022-09-01T05:27:31.813Z,60.01
2022-09-01T05:30:00.820Z,58.23
2022-09-01T05:32:28.206Z,57.62
2022-09-01T05:34:56.459Z,59.94
2022-09-01T05:37:23.524Z,62.50
2022-09-01T05:39:52.020Z,64.04
2022-09-01T05:42:19.465Z,62.36
2022-09-01T05:44:47.526Z,61.41
2022-09-01T05:47:21.365Z,60.95
2022-09-01T05:49:50.597Z,61.41
2022-09-01T05:52:20.147Z,60.79
2022-09-01T05:54:48.122Z,59.93
2022-09-01T05:57:33.732Z,57.90
2022-09-01T06:00:13.578Z,57.97
2022-09-01T06:02:42.366Z,59.89
2022-09-01T06:05:15.183Z,62.73
2022-09-01T06:07:43.836Z,64.79
2022-09-01T06:10:12.513Z,62.85
2022-09-01T06:12:40.803Z,60.81
2022-09-01T06:15:15.061Z,61.30
2022-09-01T06:17:44.430Z,60.03
2022-09-01T06:20:11.567Z,58.14
2022-09-01T06:22:43.434Z,57.83
2022-09-01T06:25:10.480Z,58.97
2022-09-01T06:27:40.605Z,59.71
2022-09-01T06:30:22.571Z,62.32
2022-09-01T06:33:01.758Z,63.26
2022-09-01T06:35:29.497Z,60.91
2022-09-01T06:37:58.116Z,60.14
2022-09-01T06:40:46.194Z,60.30
2022-09-01T06:43:17.190Z,60.34
2022-09-01T06:45:53.812Z,58.06
2022-09-01T06:48:23.165Z,58.32
2022-09-01T06:53:39.379Z,60.54
2022-09-01T06:56:12.876Z,61.97
2022-09-01T06:58:44.559Z,63.13
2022-09-01T07:01:15.452Z,61.28
2022-09-01T07:03:43.674Z,57.38
2022-09-01T07:09:49.914Z,58.16
2022-09-01T07:12:40.978Z,61.02
2022-09-01T07:17:57.938Z,63.53
2022-09-01T07:20:28.786Z,59.37
2022-09-01T07:23:05.716Z,57.52
2022-09-01T07:26:01.423Z,57.49
2022-09-01T07:28:37.276Z,56.96
2022-09-01T07:34:37.651Z,59.87
2022-09-01T07:39:48.473Z,63.82
2022-09-01T07:45:58.085Z,55.68
2022-09-01T07:51:36.425Z,57.46
2022-09-01T07:54:05.292Z,58.59
2022-09-01T07:56:36.263Z,58.00
2022-09-01T07:59:07.671Z,60.11
2022-09-01T08:01:35.571Z,58.83
2022-09-01T08:04:03.594Z,59.86
2022-09-01T08:06:37.903Z,61.25
2022-09-01T08:09:06.730Z,61.02
2022-09-01T08:12:01.154Z,62.65
2022-09-01T08:14:25.613Z,61.99
2022-09-01T08:16:53.397Z,58.39
2022-09-01T08:19:20.741Z,57.13
2022-09-01T08:22:04.052Z,57.28
2022-09-01T08:24:47.599Z,57.45
2022-09-01T08:27:15.393Z,57.74
2022-09-01T08:29:43.040Z,57.82
2022-09-01T08:32:11.118Z,58.41
2022-09-01T08:34:38.676Z,57.23
2022-09-01T08:37:06.444Z,57.59
2022-09-01T08:39:33.895Z,56.85
2022-09-01T08:42:19.634Z,56.24
2022-09-01T08:45:05.705Z,56.37
2022-09-01T08:47:50.453Z,56.91
2022-09-01T08:50:23.301Z,56.19
2022-09-01T08:53:15.708Z,56.22
2022-09-01T08:55:46.833Z,55.11
2022-09-01T08:58:17.579Z,53.65
2022-09-01T09:01:07.990Z,53.92
2022-09-01T09:03:41.172Z,54.13
2022-09-01T09:06:37.188Z,53.97
2022-09-01T09:09:09.361Z,54.55
2022-09-01T09:11:50.256Z,54.77
2022-09-01T09:14:52.317Z,54.13
2022-09-01T09:17:25.015Z,54.42
2022-09-01T09:19:53.608Z,53.09
2022-09-01T09:22:21.470Z,54.50
2022-09-01T09:25:17.483Z,54.38
2022-09-01T09:27:48.933Z,54.35
2022-09-01T09:30:26.957Z,54.47
2022-09-01T09:35:53.961Z,54.94
2022-09-01T09:38:33.330Z,55.45
2022-09-01T09:41:18.701Z,55.78
2022-09-01T09:43:49.286Z,54.85
2022-09-01T09:46:25.227Z,54.71
2022-09-01T09:49:34.535Z,54.68
2022-09-01T09:52:02.257Z,54.77
2022-09-01T09:54:34.643Z,54.17
2022-09-01T09:57:14.014Z,54.54
2022-09-01T09:59:58.147Z,54.85
2022-09-01T10:02:43.852Z,54.63
2022-09-01T10:05:36.464Z,55.44
2022-09-01T10:08:10.918Z,55.57
2022-09-01T10:10:56.378Z,55.00
2022-09-01T10:13:31.480Z,54.70
2022-09-01T10:16:09.255Z,54.09
2022-09-01T10:18:44.965Z,52.67
2022-09-01T10:21:17.636Z,51.59
2022-09-01T10:23:45.126Z,51.61
2022-09-01T10:26:35.816Z,51.94
2022-09-01T10:29:19.850Z,52.45
2022-09-01T10:31:49.493Z,52.59
2022-09-01T10:34:23.607Z,52.77
2022-09-01T10:36:56.712Z,52.97
2022-09-01T10:39:28.639Z,53.15
2022-09-01T10:42:06.970Z,53.22
2022-09-01T10:44:55.142Z,53.70
2022-09-01T10:47:33.481Z,54.03
2022-09-01T10:50:14.910Z,54.13
2022-09-01T10:52:43.284Z,53.30
2022-09-01T10:55:41.180Z,52.25
2022-09-01T11:01:51.155Z,52.46
2022-09-01T11:04:22.527Z,52.39
2022-09-01T11:07:12.060Z,52.37
2022-09-01T11:09:43.919Z,52.59
2022-09-01T11:12:32.124Z,52.49
2022-09-01T11:15:35.463Z,52.57
2022-09-01T11:18:09.461Z,51.46
2022-09-01T11:20:40.151Z,50.40
2022-09-01T11:23:20.186Z,49.99
2022-09-01T11:26:26.000Z,50.41
2022-09-01T11:28:54.538Z,50.69
2022-09-01T11:31:41.361Z,50.91
2022-09-01T11:34:20.707Z,51.14
2022-09-01T11:36:52.961Z,50.18
2022-09-01T11:39:26.514Z,49.87
2022-09-01T11:42:09.673Z,49.69
2022-09-01T11:44:49.203Z,49.46
2022-09-01T11:47:37.706Z,49.44
2022-09-01T11:50:14.925Z,49.57
2022-09-01T11:52:52.116Z,49.33
2022-09-01T11:55:34.110Z,49.11
2022-09-01T11:58:03.166Z,48.19
2022-09-01T12:00:38.519Z,46.73
2022-09-01T12:03:25.113Z,45.29
2022-09-01T12:06:02.099Z,45.37
2022-09-01T12:08:39.349Z,45.63
2022-09-01T12:11:19.997Z,45.08
2022-09-01T12:14:11.536Z,43.83
2022-09-01T12:16:44.369Z,43.69
2022-09-01T12:19:24.153Z,43.85
2022-09-01T12:22:17.510Z,43.81
2022-09-01T12:24:47.901Z,43.17
2022-09-01T12:27:16.358Z,42.64
2022-09-01T12:29:44.501Z,42.72
2022-09-01T12:32:13.770Z,41.33
2022-09-01T12:34:41.011Z,40.93
2022-09-01T12:37:20.390Z,40.99
2022-09-01T12:39:50.893Z,41.80
2022-09-01T12:42:21.333Z,40.63
2022-09-01T12:44:55.760Z,39.89
2022-09-01T12:47:35.405Z,39.81
2022-09-01T12:50:11.162Z,40.15
2022-09-01T12:52:52.456Z,39.85
2022-09-01T12:58:12.718Z,40.14
2022-09-01T13:01:16.215Z,40.25
2022-09-01T13:04:10.628Z,40.84
2022-09-01T13:06:38.460Z,41.42
2022-09-01T13:09:06.768Z,41.92
2022-09-01T13:14:22.068Z,42.59
2022-09-01T13:16:49.179Z,42.78
2022-09-01T13:19:24.058Z,43.15
2022-09-01T13:21:54.673Z,43.87
2022-09-01T13:24:26.408Z,43.87
2022-09-01T13:29:45.313Z,43.59
2022-09-01T13:32:27.774Z,43.68
2022-09-01T13:34:55.043Z,43.17
2022-09-01T13:37:22.959Z,41.90
2022-09-01T13:39:51.055Z,41.70
2022-09-01T13:42:18.785Z,41.30
2022-09-01T13:44:48.458Z,41.63
2022-09-01T13:47:32.214Z,41.85
2022-09-01T13:50:11.404Z,41.93
2022-09-01T13:52:43.715Z,42.20
2022-09-01T13:55:13.872Z,42.47
2022-09-01T13:57:41.101Z,41.97
2022-09-01T14:00:12.011Z,41.26
2022-09-01T14:02:42.575Z,41.15
2022-09-01T14:05:10.131Z,41.11
2022-09-01T14:07:37.311Z,41.58
2022-09-01T14:10:09.238Z,42.32
2022-09-01T14:12:36.960Z,42.67
2022-09-01T14:15:15.965Z,42.77
2022-09-01T14:17:46.263Z,43.18
2022-09-01T14:20:18.576Z,43.49
2022-09-01T14:22:48.223Z,43.60
2022-09-01T14:25:19.805Z,43.42
2022-09-01T14:27:49.328Z,43.52
2022-09-01T14:30:22.316Z,44.19
2022-09-01T14:32:51.875Z,44.34
2022-09-01T14:35:23.677Z,44.40
2022-09-01T14:37:52.944Z,44.88
2022-09-01T14:40:24.541Z,45.47
2022-09-01T14:42:53.625Z,44.88
2022-09-01T14:45:28.410Z,44.89
2022-09-01T14:48:01.158Z,45.23
2022-09-01T14:50:32.289Z,44.92
2022-09-01T14:53:02.390Z,44.73
2022-09-01T14:55:32.675Z,44.57
2022-09-01T14:58:00.950Z,44.40
2022-09-01T15:00:29.509Z,44.52
2022-09-01T15:02:57.995Z,44.45
2022-09-01T15:05:26.772Z,44.25
2022-09-01T15:07:55.513Z,44.23
2022-09-01T15:10:26.089Z,44.21
2022-09-01T15:12:56.264Z,44.12
2022-09-01T15:15:25.144Z,43.90
2022-09-01T15:17:54.286Z,43.29
2022-09-01T15:20:41.179Z,43.15
2022-09-01T15:23:10.590Z,43.27
2022-09-01T15:25:40.174Z,43.01
2022-09-01T15:28:09.523Z,42.86
2022-09-01T15:30:38.470Z,42.70
2022-09-01T15:33:13.238Z,42.55
2022-09-01T15:35:46.592Z,42.33
2022-09-01T15:38:17.522Z,42.01
2022-09-01T15:40:47.339Z,41.98
2022-09-01T15:43:28.202Z,42.35
2022-09-01T15:45:58.018Z,42.68
2022-09-01T15:48:28.096Z,43.06
2022-09-01T15:51:21.362Z,43.39
2022-09-01T15:53:56.121Z,43.39
2022-09-01T15:56:24.548Z,43.55
2022-09-01T15:59:07.732Z,43.60
2022-09-01T16:01:42.058Z,43.26
2022-09-01T16:04:18.413Z,43.01
2022-09-01T16:06:51.931Z,43.20
2022-09-01T16:09:22.331Z,43.29
2022-09-01T16:11:51.882Z,43.24
2022-09-01T16:14:23.648Z,42.93
2022-09-01T16:16:59.639Z,42.84
2022-09-01T16:19:58.515Z,43.17
2022-09-01T16:22:37.394Z,42.90
2022-09-01T16:25:19.085Z,42.90
2022-09-01T16:27:47.033Z,43.26
2022-09-01T16:30:21.930Z,43.15
2022-09-01T16:32:49.836Z,43.16
2022-09-01T16:35:20.095Z,43.02
2022-09-01T16:38:25.169Z,43.35
2022-09-01T16:41:23.617Z,43.50
2022-09-01T16:43:54.629Z,43.63
2022-09-01T16:46:34.863Z,43.90
2022-09-01T16:49:14.337Z,44.07
2022-09-01T16:52:23.714Z,44.33
2022-09-01T16:55:15.491Z,44.61
2022-09-01T16:58:09.180Z,44.80
2022-09-01T17:01:10.030Z,45.14
2022-09-01T17:04:12.558Z,45.77
2022-09-01T17:07:06.449Z,46.09
2022-09-01T17:09:45.615Z,46.79
2022-09-01T17:12:23.553Z,46.80
2022-09-01T17:15:14.552Z,47.16
2022-09-01T17:17:50.707Z,47.83
2022-09-01T17:20:27.888Z,48.08
2022-09-01T17:23:00.466Z,48.73
2022-09-01T17:25:42.850Z,48.19
2022-09-01T17:28:20.626Z,48.30
2022-09-01T17:31:00.413Z,48.49
2022-09-01T17:33:46.169Z,49.86
2022-09-01T17:36:46.666Z,49.76
2022-09-01T17:39:36.680Z,49.83
2022-09-01T17:42:24.577Z,50.18
2022-09-01T17:44:55.775Z,50.42
2022-09-01T17:47:24.161Z,51.09
2022-09-01T17:50:14.960Z,51.32
2022-09-01T17:53:26.858Z,51.40
2022-09-01T17:56:01.542Z,51.56
2022-09-01T17:58:47.987Z,52.06
2022-09-01T18:01:34.318Z,52.01
2022-09-01T18:04:23.340Z,52.12
2022-09-01T18:07:04.738Z,52.40
2022-09-01T18:09:43.275Z,52.90
2022-09-01T18:12:17.464Z,53.42
2022-09-01T18:14:55.907Z,53.42
2022-09-01T18:17:38.704Z,53.67
2022-09-01T18:20:49.016Z,53.91
2022-09-01T18:23:20.879Z,54.03
2022-09-01T18:25:57.384Z,54.41
2022-09-01T18:28:25.862Z,54.68
2022-09-01T18:31:06.401Z,55.00
2022-09-01T18:33:40.367Z,55.13
2022-09-01T18:36:13.639Z,55.36
2022-09-01T18:38:57.581Z,55.95
2022-09-01T18:41:48.988Z,55.80
2022-09-01T18:44:38.494Z,55.72
2022-09-01T18:47:11.165Z,55.94
2022-09-01T18:49:47.533Z,56.31
2022-09-01T18:53:00.470Z,56.62
2022-09-01T18:55:41.013Z,56.51
2022-09-01T18:58:34.273Z,56.81
2022-09-01T19:01:12.660Z,56.96
2022-09-01T19:04:18.808Z,57.21
2022-09-01T19:07:03.730Z,57.05
2022-09-01T19:09:36.925Z,57.29
2022-09-01T19:12:36.266Z,57.67
2022-09-01T19:15:16.193Z,57.71
2022-09-01T19:18:04.812Z,58.04
2022-09-01T19:20:37.846Z,58.40
2022-09-01T19:23:37.409Z,58.88
2022-09-01T19:26:11.735Z,58.69
2022-09-01T19:29:09.459Z,59.19
2022-09-01T19:31:42.605Z,59.08
2022-09-01T19:34:16.292Z,59.17
2022-09-01T19:36:53.637Z,59.34
2022-09-01T19:39:30.542Z,59.55
2022-09-01T19:42:25.338Z,59.84
2022-09-01T19:45:07.465Z,60.20
2022-09-01T19:47:45.256Z,60.67
2022-09-01T19:50:21.221Z,63.89
2022-09-01T19:53:02.388Z,69.82
2022-09-01T19:55:41.720Z,66.79
2022-09-01T19:58:19.022Z,62.46
2022-09-01T20:00:56.793Z,57.83
2022-09-01T20:03:35.137Z,55.24
2022-09-01T20:06:07.077Z,55.18
2022-09-01T20:08:54.199Z,55.91
2022-09-01T20:11:35.506Z,56.47
2022-09-01T20:14:20.527Z,57.40
2022-09-01T20:16:51.293Z,57.99
2022-09-01T20:19:24.883Z,58.61
2022-09-01T20:21:55.423Z,59.45
2022-09-01T20:24:33.835Z,59.62
2022-09-01T20:27:39.215Z,59.85
2022-09-01T20:30:16.772Z,59.75
2022-09-01T20:33:10.597Z,60.49
2022-09-01T20:36:08.658Z,66.56
2022-09-01T20:39:05.371Z,68.07
2022-09-01T20:41:39.625Z,63.35
2022-09-01T20:44:15.918Z,56.84
2022-09-01T20:46:43.265Z,54.61
2022-09-01T20:49:15.779Z,55.13
2022-09-01T20:51:52.767Z,55.91
2022-09-01T20:54:40.537Z,56.82
2022-09-01T20:57:17.538Z,57.14
2022-09-01T20:59:50.402Z,57.97
2022-09-01T21:02:47.411Z,58.79
2022-09-01T21:05:18.143Z,59.26
2022-09-01T21:08:14.794Z,60.26
2022-09-01T21:10:51.463Z,65.31
2022-09-01T21:13:43.231Z,65.20
2022-09-01T21:16:33.537Z,62.36
2022-09-01T21:19:18.854Z,58.29
2022-09-01T21:21:51.639Z,56.46
2022-09-01T21:24:19.090Z,56.98
2022-09-01T21:26:48.407Z,57.33
2022-09-01T21:29:49.464Z,57.98
2022-09-01T21:32:17.000Z,57.95
2022-09-01T21:34:45.210Z,59.05
2022-09-01T21:37:13.250Z,59.54
2022-09-01T21:39:40.908Z,60.46
2022-09-01T21:42:11.709Z,64.09
2022-09-01T21:44:40.110Z,66.30
2022-09-01T21:47:07.262Z,63.86
2022-09-01T21:49:34.222Z,61.71
2022-09-01T21:52:01.591Z,60.77
2022-09-01T21:54:28.666Z,60.18
2022-09-01T21:56:55.584Z,57.84
2022-09-01T21:59:22.918Z,56.92
2022-09-01T22:01:50.071Z,57.48
2022-09-01T22:04:18.140Z,58.82
2022-09-01T22:06:45.995Z,59.78
2022-09-01T22:09:21.337Z,60.33
2022-09-01T22:11:50.749Z,63.53
2022-09-01T22:14:19.281Z,63.30
2022-09-01T22:16:47.693Z,63.56
2022-09-01T22:19:15.061Z,62.22
2022-09-01T22:21:42.450Z,62.53
2022-09-01T22:24:09.870Z,63.26
2022-09-01T22:26:36.711Z,62.07
2022-09-01T22:29:06.175Z,61.31
2022-09-01T22:31:36.145Z,60.35
2022-09-01T22:34:04.420Z,57.79
2022-09-01T22:36:37.845Z,57.16
2022-09-01T22:39:06.288Z,57.98
2022-09-01T22:41:37.857Z,58.85
2022-09-01T22:44:05.128Z,59.90
2022-09-01T22:46:34.450Z,63.40
2022-09-01T22:49:01.777Z,65.01
2022-09-01T22:51:29.104Z,64.63
2022-09-01T22:53:56.256Z,62.42
2022-09-01T22:56:29.580Z,58.49
2022-09-01T22:59:00.721Z,57.58
2022-09-01T23:01:31.286Z,58.75
2022-09-01T23:04:03.913Z,59.58
2022-09-01T23:06:32.866Z,60.39
2022-09-01T23:09:01.916Z,64.81
2022-09-01T23:11:28.963Z,66.26
2022-09-01T23:13:55.869Z,61.86
2022-09-01T23:16:24.420Z,57.76
2022-09-01T23:18:54.467Z,56.42
2022-09-01T23:21:28.208Z,57.33
2022-09-01T23:23:58.744Z,58.61
2022-09-01T23:26:27.624Z,59.58
2022-09-01T23:28:55.067Z,60.64
2022-09-01T23:31:24.641Z,64.81
2022-09-01T23:33:51.780Z,66.26
2022-09-01T23:36:21.627Z,63.11
2022-09-01T23:38:49.427Z,61.60
2022-09-01T23:41:22.552Z,60.17
2022-09-01T23:43:51.179Z,57.89
2022-09-01T23:46:20.890Z,57.33
2022-09-01T23:48:47.711Z,58.18
2022-09-01T23:51:17.537Z,59.82
2022-09-01T23:53:46.435Z,60.40
2022-09-01T23:56:20.022Z,64.82
2022-09-01T23:58:48.411Z,65.99
